Nur fliegen ist schöner ....

Willkommen beim Flugservice Bautzen GmbH

Wir sind eine nach europäischen Richtlinien zugelassene Flugschule und lizenziertes Luftfahrtunternehmen. Bei uns können sie nicht nur Rundflüge über die Oberlausitz oder Sachsen buchen, sondern in unserer Flugschule selber das Fliegen erlernen. Erfahrene Fluglehrer stehen ihnen dabei zur Seite.

Wir bieten Ihnen außerdem spezielle Flüge zur Vermessung oder Fotoflüge für Luftbildaufnahmen an. In Zusammenarbeit mit dem Fallschirmsportclub Dresden und dem Cottbuser Fallschirmsportclub setzen wir am Flugplatz Bautzen und Neuhausen Fallschirmspringer ab.
Schauen sie sich in Ruhe bei uns um und wenn sie Fragen haben oder weitere Informationen benötigen, scheuen sie sich nicht Kontakt mit uns aufzunehmen.

Rundflüge können sie ganz leicht auch online in unserem Shop buchen.

Terminkalender

Letzter Monat Februar 2018 Nächster Monat
Mo Di Mi Do Fr Sa So
week 5 1 2 3 4
week 6 5 6 7 8 9 10 11
week 7 12 13 14 15 16 17 18
week 8 19 20 21 22 23 24 25
week 9 26 27 28

Flugwetterinfo

[Quelle: ADDS]
METAR
EDDC 180650Z 06003KT 9999 FEW010 BKN036 00/M01 Q1027 NOSIG =
TAF
EDDC 180500Z 1806/1906 05004KT 9999 BKN030 TEMPO 1806/1809 BKN008 BECMG 1818/1820 15006KT =
SR / SS: 06:08 / 16:23 UTC (EDAB Flugplatz Bautzen 2018-02-18)

Webcam EDAB

Webcam EDAB
Flugservice Bautzen GmbH, Kornmarkt 34, 02625 Bautzen  Telefon: +49 (3591) 211105, Telefax: +49 (3591) 274512, E-Mail:  flugservice(at)fsbautzen.de